createdAt,value
2023-05-21T00:00:16.421Z,100859.27
2023-05-21T00:02:30.217Z,100860.12
2023-05-21T00:04:22.241Z,100861.54
2023-05-21T00:06:15.689Z,100860.83
2023-05-21T00:08:07.388Z,100859.03
2023-05-21T00:19:16.431Z,100856.48
2023-05-21T00:21:08.125Z,100851.14
2023-05-21T00:23:02.867Z,100850.55
2023-05-21T00:24:54.611Z,100850.30
2023-05-21T00:26:46.351Z,100851.97
2023-05-21T00:28:37.892Z,100849.61
2023-05-21T00:30:29.513Z,100851.39
2023-05-21T00:32:21.298Z,100847.48
2023-05-21T00:34:14.353Z,100850.00
2023-05-21T00:36:06.571Z,100848.91
2023-05-21T00:37:59.126Z,100850.24
2023-05-21T00:39:51.138Z,100850.88
2023-05-21T00:41:43.345Z,100850.50
2023-05-21T00:43:35.436Z,100850.16
2023-05-21T00:45:27.855Z,100848.47
2023-05-21T00:47:21.676Z,100851.15
2023-05-21T00:49:14.917Z,100846.44
2023-05-21T00:51:07.154Z,100847.56
2023-05-21T00:53:00.055Z,100843.77
2023-05-21T00:54:52.464Z,100846.82
2023-05-21T00:56:44.464Z,100852.44
2023-05-21T00:58:36.548Z,100849.77
2023-05-21T01:00:29.018Z,100850.67
2023-05-21T01:02:20.589Z,100852.02
2023-05-21T01:04:13.257Z,100851.53
2023-05-21T01:06:06.309Z,100849.13
2023-05-21T01:07:58.724Z,100845.19
2023-05-21T01:09:50.875Z,100848.37
2023-05-21T01:11:48.436Z,100845.86
2023-05-21T01:13:41.556Z,100849.24
2023-05-21T01:15:34.856Z,100843.70
2023-05-21T01:17:29.482Z,100843.85
2023-05-21T01:19:22.775Z,100834.32
2023-05-21T01:21:17.467Z,100837.46
2023-05-21T01:23:10.165Z,100834.02
2023-05-21T01:25:03.115Z,100835.17
2023-05-21T01:26:55.065Z,100830.34
2023-05-21T01:28:47.452Z,100830.20
2023-05-21T01:30:41.785Z,100830.67
2023-05-21T01:32:57.452Z,100831.05
2023-05-21T01:35:08.418Z,100833.14
2023-05-21T01:37:23.782Z,100827.86
2023-05-21T01:39:27.333Z,100827.23
2023-05-21T01:41:21.816Z,100829.58
2023-05-21T01:43:14.372Z,100829.45
2023-05-21T01:45:07.909Z,100830.62
2023-05-21T01:46:59.678Z,100830.81
2023-05-21T01:48:53.386Z,100824.39
2023-05-21T01:50:46.035Z,100827.07
2023-05-21T01:52:37.590Z,100825.67
2023-05-21T01:54:29.308Z,100828.35
2023-05-21T01:56:23.212Z,100829.45
2023-05-21T01:58:18.561Z,100829.66
2023-05-21T02:00:12.120Z,100826.70
2023-05-21T02:02:03.884Z,100827.39
2023-05-21T02:03:57.402Z,100824.41
2023-05-21T02:05:52.136Z,100824.95
2023-05-21T02:07:45.416Z,100822.54
2023-05-21T02:09:37.451Z,100822.81
2023-05-21T02:11:29.224Z,100821.26
2023-05-21T02:13:25.123Z,100825.30
2023-05-21T02:15:19.325Z,100819.96
2023-05-21T02:17:11.216Z,100819.86
2023-05-21T02:19:05.001Z,100820.80
2023-05-21T02:20:56.784Z,100818.84
2023-05-21T02:22:49.023Z,100819.10
2023-05-21T02:24:41.250Z,100818.14
2023-05-21T02:26:32.808Z,100818.46
2023-05-21T02:28:24.573Z,100817.86
2023-05-21T02:30:16.721Z,100821.83
2023-05-21T02:32:08.619Z,100819.17
2023-05-21T02:34:00.815Z,100815.31
2023-05-21T02:35:52.797Z,100813.67
2023-05-21T02:37:44.737Z,100812.06
2023-05-21T02:39:36.813Z,100811.13
2023-05-21T02:41:28.904Z,100813.48
2023-05-21T02:43:20.899Z,100812.25
2023-05-21T02:45:13.440Z,100803.73
2023-05-21T02:47:05.496Z,100803.68
2023-05-21T02:48:57.061Z,100804.81
2023-05-21T02:50:48.404Z,100803.02
2023-05-21T02:52:39.937Z,100801.51
2023-05-21T02:54:31.473Z,100808.75
2023-05-21T02:56:23.566Z,100803.55
2023-05-21T02:58:15.558Z,100803.73
2023-05-21T03:00:09.245Z,100801.26
2023-05-21T03:02:01.122Z,100796.86
2023-05-21T03:03:52.692Z,100798.02
2023-05-21T03:05:45.943Z,100798.59
2023-05-21T03:07:37.688Z,100800.59
2023-05-21T03:09:29.262Z,100796.00
2023-05-21T03:11:22.627Z,100793.95
2023-05-21T03:13:14.126Z,100795.00
2023-05-21T03:15:06.196Z,100794.44
2023-05-21T03:16:58.436Z,100796.89
2023-05-21T03:18:50.452Z,100799.14
2023-05-21T03:20:44.442Z,100798.39
2023-05-21T03:22:37.878Z,100800.17
2023-05-21T03:24:33.303Z,100802.18
2023-05-21T03:26:27.694Z,100798.27
2023-05-21T03:28:19.350Z,100799.39
2023-05-21T03:30:12.019Z,100795.21
2023-05-21T03:32:03.814Z,100792.98
2023-05-21T03:33:55.422Z,100790.48
2023-05-21T03:35:46.993Z,100790.27
2023-05-21T03:37:38.859Z,100793.55
2023-05-21T03:39:30.572Z,100791.23
2023-05-21T03:41:22.373Z,100778.95
2023-05-21T03:43:13.895Z,100790.57
2023-05-21T03:45:07.024Z,100791.52
2023-05-21T03:46:59.298Z,100795.63
2023-05-21T03:48:51.555Z,100795.63
2023-05-21T03:50:46.367Z,100799.66
2023-05-21T03:52:38.267Z,100797.56
2023-05-21T03:54:29.975Z,100798.74
2023-05-21T03:56:21.745Z,100795.85
2023-05-21T03:58:13.504Z,100798.27
2023-05-21T04:00:07.132Z,100798.29
2023-05-21T04:01:58.922Z,100796.10
2023-05-21T04:03:50.805Z,100796.96
2023-05-21T04:05:43.213Z,100793.76
2023-05-21T04:07:34.907Z,100796.73
2023-05-21T04:09:27.748Z,100799.84
2023-05-21T04:11:19.525Z,100799.50
2023-05-21T04:13:11.779Z,100798.91
2023-05-21T04:15:03.928Z,100796.95
2023-05-21T04:16:56.938Z,100796.23
2023-05-21T04:18:49.016Z,100796.17
2023-05-21T04:20:40.781Z,100795.35
2023-05-21T04:22:32.489Z,100800.60
2023-05-21T04:24:25.167Z,100796.79
2023-05-21T04:26:16.998Z,100795.86
2023-05-21T04:28:08.919Z,100793.88
2023-05-21T04:30:00.810Z,100796.80
2023-05-21T04:31:53.167Z,100795.98
2023-05-21T04:33:46.333Z,100797.52
2023-05-21T04:35:38.413Z,100799.94
2023-05-21T04:37:31.730Z,100798.77
2023-05-21T04:39:23.279Z,100798.20
2023-05-21T04:41:15.331Z,100802.77
2023-05-21T04:43:08.314Z,100802.61
2023-05-21T04:45:00.186Z,100802.21
2023-05-21T04:46:52.769Z,100803.14
2023-05-21T04:48:45.192Z,100807.61
2023-05-21T04:50:37.151Z,100804.30
2023-05-21T04:52:28.997Z,100799.50
2023-05-21T04:54:20.753Z,100801.40
2023-05-21T04:56:12.383Z,100805.64
2023-05-21T04:58:04.115Z,100800.39
2023-05-21T04:59:57.999Z,100799.47
2023-05-21T05:01:49.873Z,100802.96
2023-05-21T05:03:41.517Z,100800.02
2023-05-21T05:05:32.844Z,100797.55
2023-05-21T05:07:24.124Z,100799.63
2023-05-21T05:09:15.965Z,100801.88
2023-05-21T05:11:07.348Z,100800.36
2023-05-21T05:13:01.709Z,100798.27
2023-05-21T05:14:53.655Z,100795.10
2023-05-21T05:16:48.288Z,100797.58
2023-05-21T05:18:40.441Z,100797.85
2023-05-21T05:20:33.087Z,100795.30
2023-05-21T05:22:25.412Z,100798.30
2023-05-21T05:24:17.321Z,100794.05
2023-05-21T05:26:31.261Z,100794.02
2023-05-21T05:28:36.292Z,100796.02
2023-05-21T05:30:29.327Z,100792.77
2023-05-21T05:32:21.032Z,100795.98
2023-05-21T05:34:12.715Z,100794.17
2023-05-21T05:36:04.802Z,100792.50
2023-05-21T05:37:56.235Z,100791.56
2023-05-21T05:39:47.527Z,100789.62
2023-05-21T05:41:39.521Z,100790.51
2023-05-21T05:43:31.313Z,100790.42
2023-05-21T05:45:22.773Z,100789.31
2023-05-21T05:47:13.941Z,100790.44
2023-05-21T05:49:05.836Z,100788.23
2023-05-21T05:50:57.414Z,100786.64
2023-05-21T05:52:49.027Z,100785.26
2023-05-21T05:54:40.778Z,100783.02
2023-05-21T05:56:32.710Z,100779.70
2023-05-21T05:58:24.549Z,100780.48
2023-05-21T06:00:16.452Z,100780.41
2023-05-21T06:02:07.722Z,100778.36
2023-05-21T06:03:59.160Z,100778.41
2023-05-21T06:05:51.771Z,100779.60
2023-05-21T06:07:42.942Z,100779.98
2023-05-21T06:09:34.664Z,100777.45
2023-05-21T06:11:25.938Z,100781.02
2023-05-21T06:13:17.321Z,100778.71
2023-05-21T06:15:09.176Z,100777.38
2023-05-21T06:17:00.687Z,100777.14
2023-05-21T06:18:52.126Z,100777.52
2023-05-21T06:20:43.518Z,100774.77
2023-05-21T06:22:35.312Z,100770.54
2023-05-21T06:24:26.717Z,100772.46
2023-05-21T06:26:19.557Z,100770.94
2023-05-21T06:28:10.912Z,100769.59
2023-05-21T06:30:03.193Z,100772.51
2023-05-21T06:31:54.490Z,100772.09
2023-05-21T06:33:46.207Z,100771.77
2023-05-21T06:35:39.879Z,100767.96
2023-05-21T06:37:33.640Z,100767.17
2023-05-21T06:39:25.644Z,100766.02
2023-05-21T06:41:17.024Z,100767.85
2023-05-21T06:43:08.799Z,100765.20
2023-05-21T06:45:01.449Z,100766.86
2023-05-21T06:46:52.633Z,100765.14
2023-05-21T06:48:44.396Z,100768.52
2023-05-21T06:50:35.795Z,100768.88
2023-05-21T06:52:27.712Z,100769.33
2023-05-21T06:54:19.512Z,100762.60
2023-05-21T06:56:11.289Z,100765.50
2023-05-21T06:58:05.462Z,100766.47
2023-05-21T06:59:56.926Z,100769.84
2023-05-21T07:01:48.150Z,100764.11
2023-05-21T07:03:39.952Z,100760.98
2023-05-21T07:05:31.605Z,100760.21
2023-05-21T07:07:23.034Z,100754.95
2023-05-21T07:09:15.713Z,100759.64
2023-05-21T07:11:07.251Z,100758.19
2023-05-21T07:12:58.759Z,100752.73
2023-05-21T07:14:50.610Z,100750.25
2023-05-21T07:16:42.581Z,100738.66
2023-05-21T07:18:33.853Z,100751.63
2023-05-21T07:20:25.613Z,100747.19
2023-05-21T07:22:17.462Z,100746.13
2023-05-21T07:24:08.962Z,100742.86
2023-05-21T07:26:03.884Z,100739.73
2023-05-21T07:27:55.572Z,100741.63
2023-05-21T07:29:49.651Z,100744.22
2023-05-21T07:31:41.145Z,100747.36
2023-05-21T07:33:32.544Z,100749.34
2023-05-21T07:35:23.726Z,100748.38
2023-05-21T07:37:15.317Z,100745.27
2023-05-21T07:39:07.587Z,100747.55
2023-05-21T07:41:19.254Z,100746.47
2023-05-21T07:43:10.920Z,100745.58
2023-05-21T07:48:13.563Z,100734.56
2023-05-21T07:50:04.313Z,100746.77
2023-05-21T07:51:56.627Z,100746.48
2023-05-21T07:53:47.189Z,100747.52
2023-05-21T07:55:38.331Z,100746.89
2023-05-21T07:57:29.297Z,100745.61
2023-05-21T07:59:20.635Z,100746.76
2023-05-21T08:01:32.594Z,100741.10
2023-05-21T08:03:25.726Z,100735.40
2023-05-21T08:05:24.527Z,100738.55
2023-05-21T08:07:21.768Z,100739.06
2023-05-21T08:09:11.775Z,100739.83
2023-05-21T08:11:07.432Z,100739.17
2023-05-21T08:13:05.682Z,100741.59
2023-05-21T08:14:58.883Z,100737.64
2023-05-21T08:16:50.500Z,100738.75
2023-05-21T08:18:45.938Z,100736.98
2023-05-21T08:20:42.691Z,100732.11
2023-05-21T08:22:33.341Z,100730.77
2023-05-21T08:24:25.816Z,100730.51
2023-05-21T08:26:19.032Z,100732.66
2023-05-21T08:28:09.186Z,100729.86
2023-05-21T08:29:59.694Z,100727.60
2023-05-21T08:31:50.057Z,100723.86
2023-05-21T08:33:49.863Z,100725.52
2023-05-21T08:35:40.181Z,100728.20
2023-05-21T08:37:30.990Z,100725.58
2023-05-21T08:39:21.494Z,100729.55
2023-05-21T08:41:12.600Z,100733.08
2023-05-21T08:43:03.297Z,100733.16
2023-05-21T08:44:55.931Z,100733.63
2023-05-21T08:46:49.414Z,100725.40
2023-05-21T08:48:40.065Z,100728.96
2023-05-21T08:50:30.952Z,100728.56
2023-05-21T08:52:21.051Z,100730.66
2023-05-21T08:54:13.475Z,100726.79
2023-05-21T08:56:03.835Z,100723.70
2023-05-21T08:57:54.501Z,100724.02
2023-05-21T08:59:45.821Z,100723.28
2023-05-21T09:01:37.701Z,100721.48
2023-05-21T09:03:28.678Z,100725.93
2023-05-21T09:05:20.444Z,100727.23
2023-05-21T09:07:10.626Z,100729.05
2023-05-21T09:09:05.733Z,100729.70
2023-05-21T09:10:55.777Z,100730.36
2023-05-21T09:12:48.212Z,100726.15
2023-05-21T09:14:39.427Z,100727.28
2023-05-21T09:16:31.211Z,100722.20
2023-05-21T09:18:28.009Z,100730.05
2023-05-21T09:20:24.408Z,100727.67
2023-05-21T09:22:14.660Z,100728.15
2023-05-21T09:24:05.821Z,100727.34
2023-05-21T09:25:56.028Z,100730.55
2023-05-21T09:27:46.519Z,100728.84
2023-05-21T09:29:36.918Z,100725.08
2023-05-21T09:31:27.287Z,100727.14
2023-05-21T09:33:31.163Z,100724.66
2023-05-21T09:35:21.566Z,100718.58
2023-05-21T09:37:23.656Z,100715.75
2023-05-21T09:39:29.464Z,100715.29
2023-05-21T09:41:22.171Z,100712.14
2023-05-21T09:43:14.669Z,100710.38
2023-05-21T09:45:05.427Z,100715.26
2023-05-21T09:46:59.006Z,100715.16
2023-05-21T09:49:25.685Z,100708.46
2023-05-21T09:51:16.518Z,100703.23
2023-05-21T09:53:13.360Z,100705.52
2023-05-21T09:55:05.735Z,100697.92
2023-05-21T09:56:55.866Z,100699.69
2023-05-21T09:58:46.272Z,100700.44
2023-05-21T10:00:39.548Z,100700.41
2023-05-21T10:02:31.444Z,100697.07
2023-05-21T10:04:22.384Z,100694.80
2023-05-21T10:06:12.824Z,100689.86
2023-05-21T10:08:04.210Z,100699.13
2023-05-21T10:09:56.150Z,100699.50
2023-05-21T10:11:46.360Z,100696.60
2023-05-21T10:13:40.093Z,100693.79
2023-05-21T10:15:42.594Z,100693.93
2023-05-21T10:17:32.956Z,100685.02
2023-05-21T10:19:25.040Z,100688.22
2023-05-21T10:21:17.748Z,100689.84
2023-05-21T10:23:29.258Z,100683.48
2023-05-21T10:25:21.074Z,100680.48
2023-05-21T10:27:12.915Z,100680.48
2023-05-21T10:29:03.583Z,100678.17
2023-05-21T11:46:52.485Z,100624.41
2023-05-21T11:48:44.011Z,100622.94
2023-05-21T11:50:35.934Z,100616.66
2023-05-21T11:52:31.818Z,100614.67
2023-05-21T11:54:23.951Z,100620.28
2023-05-21T11:56:18.794Z,100618.47
2023-05-21T11:58:14.765Z,100611.91
2023-05-21T12:00:14.236Z,100613.80
2023-05-21T12:02:05.829Z,100616.77
2023-05-21T12:03:57.357Z,100613.98
2023-05-21T12:05:49.557Z,100615.42
2023-05-21T12:07:41.336Z,100615.77
2023-05-21T12:09:43.396Z,100616.59
2023-05-21T12:11:37.023Z,100613.68
2023-05-21T12:13:29.223Z,100613.50
2023-05-21T12:15:21.794Z,100611.43
2023-05-21T12:17:16.621Z,100610.84
2023-05-21T12:19:08.511Z,100614.74
2023-05-21T12:21:00.729Z,100609.27
2023-05-21T12:22:52.301Z,100612.73
2023-05-21T12:24:53.917Z,100609.07
2023-05-21T12:26:46.193Z,100608.34
2023-05-21T12:28:37.645Z,100602.41
2023-05-21T12:30:30.006Z,100601.63
2023-05-21T12:32:21.844Z,100602.45
2023-05-21T12:34:13.413Z,100602.45
2023-05-21T12:36:05.505Z,100599.22
2023-05-21T12:37:57.146Z,100600.16
2023-05-21T12:39:50.990Z,100600.67
2023-05-21T12:41:43.808Z,100595.22
2023-05-21T12:43:35.793Z,100601.01
2023-05-21T12:45:27.102Z,100604.02
2023-05-21T12:47:18.706Z,100603.98
2023-05-21T12:49:31.193Z,100604.58
2023-05-21T12:51:22.647Z,100605.77
2023-05-21T12:53:14.037Z,100603.54
2023-05-21T12:55:08.281Z,100602.34
2023-05-21T12:57:07.755Z,100601.98
2023-05-21T12:58:59.308Z,100602.38
2023-05-21T13:01:15.200Z,100597.48
2023-05-21T13:03:07.210Z,100590.04
2023-05-21T13:05:01.439Z,100593.37
2023-05-21T13:07:14.974Z,100592.45
2023-05-21T13:09:06.665Z,100591.91
2023-05-21T13:10:58.430Z,100587.95
2023-05-21T13:12:50.253Z,100594.33
2023-05-21T13:14:42.456Z,100593.67
2023-05-21T13:16:34.233Z,100589.32
2023-05-21T13:18:25.934Z,100592.43
2023-05-21T13:20:37.842Z,100590.17
2023-05-21T13:22:29.561Z,100592.96
2023-05-21T13:24:21.226Z,100591.85
2023-05-21T13:26:33.241Z,100589.50
2023-05-21T13:28:25.512Z,100583.40
2023-05-21T13:30:17.233Z,100579.66
2023-05-21T13:32:08.965Z,100579.37
2023-05-21T13:34:00.589Z,100576.38
2023-05-21T13:35:52.229Z,100577.44
2023-05-21T13:47:17.662Z,100563.71
2023-05-21T13:49:09.109Z,100566.60
2023-05-21T13:51:01.186Z,100564.17
2023-05-21T13:52:53.473Z,100559.30
2023-05-21T13:54:45.174Z,100571.00
2023-05-21T13:56:36.559Z,100565.91
2023-05-21T13:58:28.035Z,100569.45
2023-05-21T14:00:19.956Z,100566.84
2023-05-21T14:02:11.573Z,100568.63
2023-05-21T14:04:05.557Z,100568.71
2023-05-21T14:05:57.630Z,100569.23
2023-05-21T14:07:49.460Z,100568.17
2023-05-21T14:09:41.047Z,100574.64
2023-05-21T14:11:32.309Z,100570.69
2023-05-21T14:13:24.237Z,100571.62
2023-05-21T14:15:17.339Z,100573.04
2023-05-21T14:17:09.068Z,100568.73
2023-05-21T14:19:01.287Z,100569.84
2023-05-21T14:20:53.733Z,100572.14
2023-05-21T14:22:45.550Z,100569.75
2023-05-21T14:24:37.384Z,100570.23
2023-05-21T14:26:29.525Z,100567.11
2023-05-21T14:28:21.262Z,100568.02
2023-05-21T14:30:12.742Z,100562.45
2023-05-21T14:32:04.592Z,100562.94
2023-05-21T14:33:56.218Z,100559.11
2023-05-21T14:35:48.360Z,100562.91
2023-05-21T14:37:40.123Z,100561.79
2023-05-21T14:39:31.556Z,100565.55
2023-05-21T14:41:27.092Z,100566.12
2023-05-21T14:43:18.560Z,100569.15
2023-05-21T14:47:08.701Z,100567.95
2023-05-21T14:49:00.800Z,100564.05
2023-05-21T14:50:52.956Z,100566.34
2023-05-21T14:52:45.085Z,100562.80
2023-05-21T14:54:37.490Z,100558.59
2023-05-21T14:56:29.295Z,100556.48
2023-05-21T14:58:21.057Z,100551.57
2023-05-21T15:00:12.929Z,100545.80
2023-05-21T15:02:05.195Z,100544.95
2023-05-21T15:03:58.541Z,100545.94
2023-05-21T15:05:50.462Z,100544.41
2023-05-21T15:07:42.307Z,100546.31
2023-05-21T15:09:33.987Z,100542.95
2023-05-21T15:11:26.081Z,100542.98
2023-05-21T15:13:17.760Z,100542.19
2023-05-21T15:15:10.479Z,100541.66
2023-05-21T15:17:02.193Z,100545.66
2023-05-21T15:18:54.006Z,100543.29
2023-05-21T15:20:45.918Z,100539.48
2023-05-21T15:22:37.465Z,100538.65
2023-05-21T15:24:28.744Z,100537.95
2023-05-21T15:26:21.530Z,100537.09
2023-05-21T15:28:13.147Z,100538.65
2023-05-21T15:30:05.487Z,100535.52
2023-05-21T15:31:57.009Z,100533.91
2023-05-21T15:33:49.218Z,100533.08
2023-05-21T15:35:41.257Z,100533.35
2023-05-21T15:37:34.507Z,100530.36
2023-05-21T15:39:27.056Z,100531.39
2023-05-21T15:41:18.785Z,100532.77
2023-05-21T15:43:10.142Z,100531.95
2023-05-21T15:45:01.788Z,100527.70
2023-05-21T15:46:54.924Z,100526.72
2023-05-21T15:48:46.993Z,100526.27
2023-05-21T15:50:39.400Z,100528.15
2023-05-21T15:52:30.930Z,100523.98
2023-05-21T15:54:22.205Z,100524.80
2023-05-21T15:56:13.834Z,100525.52
2023-05-21T15:58:06.222Z,100520.17
2023-05-21T15:59:58.041Z,100521.70
2023-05-21T16:01:49.800Z,100519.25
2023-05-21T16:03:41.325Z,100521.65
2023-05-21T16:05:32.861Z,100521.88
2023-05-21T16:07:24.727Z,100519.34
2023-05-21T16:09:16.404Z,100517.02
2023-05-21T16:11:07.886Z,100517.41
2023-05-21T16:12:59.639Z,100514.23
2023-05-21T16:14:51.694Z,100510.83
2023-05-21T16:16:43.438Z,100510.02
2023-05-21T16:18:35.019Z,100511.27
2023-05-21T16:20:26.864Z,100515.23
2023-05-21T16:22:21.285Z,100514.78
2023-05-21T16:24:13.136Z,100520.79
2023-05-21T16:26:05.902Z,100522.95
2023-05-21T16:27:57.459Z,100524.33
2023-05-21T16:29:49.061Z,100522.30
2023-05-21T16:31:40.795Z,100524.52
2023-05-21T16:33:32.460Z,100518.93
2023-05-21T16:35:24.239Z,100520.02
2023-05-21T16:37:15.465Z,100520.05
2023-05-21T16:39:07.146Z,100523.08
2023-05-21T16:40:58.987Z,100527.69
2023-05-21T16:42:52.892Z,100523.71
2023-05-21T16:44:44.757Z,100524.67
2023-05-21T16:46:36.461Z,100525.16
2023-05-21T16:48:27.985Z,100522.53
2023-05-21T16:50:19.638Z,100520.78
2023-05-21T16:52:11.024Z,100519.44
2023-05-21T16:54:04.222Z,100517.01
2023-05-21T16:55:55.866Z,100522.52
2023-05-21T16:57:47.498Z,100519.39
2023-05-21T16:59:39.256Z,100521.09
2023-05-21T17:01:30.930Z,100521.96
2023-05-21T17:04:23.253Z,100523.27
2023-05-21T17:06:15.064Z,100518.74
2023-05-21T17:08:06.500Z,100525.98
2023-05-21T17:09:58.110Z,100529.58
2023-05-21T17:11:49.823Z,100526.50
2023-05-21T17:13:42.187Z,100530.58
2023-05-21T17:15:33.747Z,100532.27
2023-05-21T17:17:25.664Z,100534.46
2023-05-21T17:19:17.139Z,100535.39
2023-05-21T17:21:09.649Z,100538.20
2023-05-21T17:23:01.346Z,100537.10
2023-05-21T17:24:53.139Z,100539.48
2023-05-21T17:26:44.326Z,100538.10
2023-05-21T17:28:36.661Z,100540.45
2023-05-21T17:30:27.821Z,100540.83
2023-05-21T17:32:20.921Z,100540.05
2023-05-21T17:34:12.374Z,100538.03
2023-05-21T17:36:04.224Z,100541.77
2023-05-21T17:37:56.547Z,100536.07
2023-05-21T17:39:48.028Z,100537.54
2023-05-21T17:41:39.494Z,100537.38
2023-05-21T17:43:32.109Z,100533.73
2023-05-21T17:45:23.548Z,100535.38
2023-05-21T17:47:15.201Z,100536.76
2023-05-21T17:49:08.324Z,100537.77
2023-05-21T17:51:00.145Z,100539.09
2023-05-21T17:52:51.231Z,100536.70
2023-05-21T17:54:42.615Z,100538.58
2023-05-21T17:56:38.806Z,100540.57
2023-05-21T17:58:31.585Z,100539.67
2023-05-21T18:00:22.957Z,100541.61
2023-05-21T18:02:14.731Z,100539.93
2023-05-21T18:04:12.240Z,100542.63
2023-05-21T18:06:04.295Z,100545.23
2023-05-21T18:07:55.788Z,100547.21
2023-05-21T18:09:49.538Z,100550.65
2023-05-21T18:11:42.953Z,100555.25
2023-05-21T18:13:34.438Z,100558.06
2023-05-21T18:15:26.191Z,100559.19
2023-05-21T18:17:17.532Z,100559.56
2023-05-21T18:19:08.806Z,100560.25
2023-05-21T18:21:00.289Z,100564.00
2023-05-21T18:22:51.861Z,100566.13
2023-05-21T18:24:43.005Z,100566.11
2023-05-21T18:26:34.245Z,100563.76
2023-05-21T18:28:27.564Z,100563.78
2023-05-21T18:30:19.256Z,100567.29
2023-05-21T18:32:12.674Z,100563.32
2023-05-21T18:34:04.319Z,100566.55
2023-05-21T18:35:55.888Z,100563.23
2023-05-21T18:37:48.695Z,100564.52
2023-05-21T18:39:40.413Z,100559.83
2023-05-21T18:41:31.991Z,100559.89
2023-05-21T18:43:23.496Z,100557.02
2023-05-21T18:45:15.594Z,100555.10
2023-05-21T18:47:07.731Z,100554.54
2023-05-21T18:49:00.480Z,100553.60
2023-05-21T18:50:52.848Z,100554.89
2023-05-21T18:52:44.646Z,100556.70
2023-05-21T18:54:36.648Z,100558.42
2023-05-21T18:56:28.445Z,100560.25
2023-05-21T18:58:20.389Z,100560.92
2023-05-21T19:00:12.891Z,100566.02
2023-05-21T19:02:04.811Z,100567.95
2023-05-21T19:03:56.784Z,100566.80
2023-05-21T19:05:48.575Z,100569.64
2023-05-21T19:07:41.313Z,100569.20
2023-05-21T19:09:33.038Z,100568.33
2023-05-21T19:11:27.543Z,100571.52
2023-05-21T19:13:19.625Z,100570.77
2023-05-21T19:15:11.762Z,100567.14
2023-05-21T19:17:03.990Z,100570.50
2023-05-21T19:18:55.836Z,100572.20
2023-05-21T19:20:47.543Z,100575.88
2023-05-21T19:22:39.093Z,100574.48
2023-05-21T19:24:31.061Z,100575.06
2023-05-21T19:26:22.890Z,100576.83
2023-05-21T19:28:14.128Z,100575.14
2023-05-21T19:30:06.281Z,100572.79
2023-05-21T19:31:59.252Z,100576.03
2023-05-21T19:33:51.009Z,100574.52
2023-05-21T19:35:43.316Z,100569.08
2023-05-21T19:37:35.703Z,100569.53
2023-05-21T19:39:30.707Z,100565.92
2023-05-21T19:41:23.665Z,100566.20
2023-05-21T19:43:15.345Z,100572.04
2023-05-21T19:45:09.620Z,100570.09
2023-05-21T19:47:02.083Z,100574.13
2023-05-21T19:48:53.257Z,100571.74
2023-05-21T19:50:44.984Z,100571.20
2023-05-21T19:52:38.178Z,100570.86
2023-05-21T19:54:29.931Z,100570.76
2023-05-21T19:56:21.992Z,100571.13
2023-05-21T19:58:16.728Z,100572.90
2023-05-21T20:00:10.367Z,100572.08
2023-05-21T20:02:01.860Z,100566.02
2023-05-21T20:03:53.382Z,100563.78
2023-05-21T20:05:44.917Z,100566.64
2023-05-21T20:07:36.595Z,100558.62
2023-05-21T20:09:28.044Z,100560.92
2023-05-21T20:11:19.643Z,100562.13
2023-05-21T20:13:11.733Z,100567.65
2023-05-21T20:15:05.625Z,100562.91
2023-05-21T20:16:58.458Z,100558.77
2023-05-21T20:18:50.390Z,100560.02
2023-05-21T20:20:42.257Z,100556.92
2023-05-21T20:22:34.536Z,100557.45
2023-05-21T20:24:26.061Z,100553.29
2023-05-21T20:26:19.046Z,100552.90
2023-05-21T20:28:10.407Z,100552.91
2023-05-21T20:30:02.016Z,100548.37
2023-05-21T20:31:54.462Z,100551.63
2023-05-21T20:33:46.397Z,100551.74
2023-05-21T20:35:37.775Z,100555.88
2023-05-21T20:37:32.251Z,100556.50
2023-05-21T20:39:24.608Z,100554.23
2023-05-21T20:41:15.993Z,100553.80
2023-05-21T20:43:08.237Z,100551.77
2023-05-21T20:45:03.316Z,100554.98
2023-05-21T20:46:54.668Z,100551.65
2023-05-21T20:48:47.305Z,100551.53
2023-05-21T20:50:40.882Z,100548.23
2023-05-21T20:52:32.426Z,100544.19
2023-05-21T20:54:24.071Z,100551.54
2023-05-21T20:56:21.731Z,100548.20
2023-05-21T20:58:18.043Z,100550.31
2023-05-21T21:00:12.857Z,100551.09
2023-05-21T21:02:06.610Z,100548.86
2023-05-21T21:03:58.376Z,100549.60
2023-05-21T21:05:49.914Z,100547.39
2023-05-21T21:07:41.900Z,100550.42
2023-05-21T21:09:33.335Z,100552.94
2023-05-21T21:11:25.168Z,100550.51
2023-05-21T21:13:16.849Z,100547.48
2023-05-21T21:15:08.802Z,100547.77
2023-05-21T21:17:00.553Z,100549.35
2023-05-21T21:18:51.934Z,100549.40
2023-05-21T21:20:43.453Z,100549.85
2023-05-21T21:22:34.776Z,100551.25
2023-05-21T21:24:26.618Z,100547.27
2023-05-21T21:26:18.738Z,100545.48
2023-05-21T21:28:10.765Z,100545.65
2023-05-21T21:30:02.394Z,100547.15
2023-05-21T21:31:53.723Z,100548.03
2023-05-21T21:33:45.224Z,100550.16
2023-05-21T21:35:36.952Z,100547.63
2023-05-21T21:37:29.446Z,100550.94
2023-05-21T21:39:21.186Z,100554.76
2023-05-21T21:41:12.527Z,100559.77
2023-05-21T21:43:03.958Z,100558.68
2023-05-21T21:44:55.316Z,100557.11
2023-05-21T21:46:46.779Z,100557.73
2023-05-21T21:48:38.009Z,100556.67
2023-05-21T21:50:29.477Z,100559.82
2023-05-21T21:52:20.870Z,100560.38
2023-05-21T21:54:12.445Z,100560.77
2023-05-21T21:56:04.304Z,100567.11
2023-05-21T21:57:55.804Z,100568.85
2023-05-21T21:59:47.230Z,100569.34
2023-05-21T22:01:38.976Z,100568.66
2023-05-21T22:03:32.892Z,100569.73
2023-05-21T22:05:24.357Z,100567.05
2023-05-21T22:07:17.947Z,100569.50
2023-05-21T22:09:09.607Z,100573.56
2023-05-21T22:11:01.948Z,100572.48
2023-05-21T22:12:53.074Z,100571.01
2023-05-21T22:14:44.220Z,100575.52
2023-05-21T22:16:36.572Z,100576.34
2023-05-21T22:18:38.751Z,100574.18
2023-05-21T22:20:33.153Z,100576.85
2023-05-21T22:22:25.957Z,100575.45
2023-05-21T22:24:31.019Z,100575.23
2023-05-21T22:26:23.495Z,100574.66
2023-05-21T22:28:15.461Z,100570.16
2023-05-21T22:30:07.964Z,100571.38
2023-05-21T22:31:59.879Z,100569.38
2023-05-21T22:33:51.434Z,100571.32
2023-05-21T22:35:42.588Z,100571.83
2023-05-21T22:37:33.805Z,100570.79
2023-05-21T22:39:25.833Z,100569.36
2023-05-21T22:41:17.580Z,100569.38
2023-05-21T22:43:09.188Z,100570.94
2023-05-21T22:45:01.774Z,100568.20
2023-05-21T22:46:53.091Z,100568.02
2023-05-21T22:48:46.086Z,100566.61
2023-05-21T22:50:38.637Z,100567.76
2023-05-21T22:52:30.640Z,100569.34
2023-05-21T22:54:22.691Z,100570.34
2023-05-21T22:56:14.153Z,100565.19
2023-05-21T22:58:05.746Z,100567.80
2023-05-21T22:59:57.056Z,100568.01
2023-05-21T23:01:48.650Z,100567.73
2023-05-21T23:03:40.431Z,100572.05
2023-05-21T23:05:32.192Z,100568.44
2023-05-21T23:07:23.507Z,100568.29